createdAt,value
2022-11-16T00:02:07.392Z,82.27
2022-11-16T00:04:34.404Z,82.35
2022-11-16T00:07:05.262Z,83.25
2022-11-16T00:09:33.218Z,81.96
2022-11-16T00:12:02.247Z,82.51
2022-11-16T00:14:31.727Z,82.58
2022-11-16T00:17:00.834Z,82.48
2022-11-16T00:19:28.574Z,82.42
2022-11-16T00:21:56.575Z,81.77
2022-11-16T00:24:24.142Z,81.91
2022-11-16T00:26:54.114Z,82.34
2022-11-16T00:29:25.690Z,81.81
2022-11-16T00:31:54.503Z,81.74
2022-11-16T00:34:23.239Z,81.84
2022-11-16T00:36:51.003Z,80.64
2022-11-16T00:39:19.661Z,81.46
2022-11-16T00:41:47.404Z,80.82
2022-11-16T00:44:14.926Z,80.30
2022-11-16T00:46:42.490Z,80.83
2022-11-16T00:49:09.970Z,80.72
2022-11-16T00:51:37.556Z,80.48
2022-11-16T00:54:06.945Z,80.89
2022-11-16T00:56:36.505Z,81.21
2022-11-16T00:59:04.559Z,80.24
2022-11-16T01:01:32.472Z,80.40
2022-11-16T01:03:59.511Z,80.66
2022-11-16T01:06:26.589Z,79.89
2022-11-16T01:08:53.873Z,79.77
2022-11-16T01:11:42.537Z,80.67
2022-11-16T01:14:10.560Z,80.80
2022-11-16T01:16:37.642Z,81.60
2022-11-16T01:19:05.553Z,80.71
2022-11-16T01:21:33.838Z,80.43
2022-11-16T01:24:01.314Z,80.81
2022-11-16T01:26:28.339Z,80.85
2022-11-16T01:28:55.713Z,80.48
2022-11-16T01:31:22.657Z,80.72
2022-11-16T01:33:51.874Z,80.92
2022-11-16T01:36:23.000Z,80.48
2022-11-16T01:38:50.762Z,80.38
2022-11-16T01:41:26.119Z,80.37
2022-11-16T01:44:33.008Z,80.24
2022-11-16T01:47:19.065Z,79.97
2022-11-16T01:49:55.077Z,80.28
2022-11-16T01:52:31.638Z,80.26
2022-11-16T01:54:59.810Z,80.18
2022-11-16T01:57:38.107Z,80.42
2022-11-16T02:00:11.328Z,81.12
2022-11-16T02:02:41.954Z,81.08
2022-11-16T02:05:22.685Z,81.12
2022-11-16T02:08:19.985Z,80.17
2022-11-16T02:10:56.069Z,80.47
2022-11-16T02:14:13.059Z,80.73
2022-11-16T02:17:04.766Z,81.47
2022-11-16T02:19:51.819Z,81.18
2022-11-16T02:22:21.590Z,79.63
2022-11-16T02:25:26.595Z,80.38
2022-11-16T02:28:11.743Z,81.07
2022-11-16T02:30:44.634Z,80.51
2022-11-16T02:33:19.602Z,80.75
2022-11-16T02:35:50.897Z,80.26
2022-11-16T02:38:22.917Z,80.41
2022-11-16T02:40:56.999Z,80.11
2022-11-16T02:43:31.194Z,79.91
2022-11-16T02:46:02.509Z,79.42
2022-11-16T02:48:35.231Z,79.41
2022-11-16T02:51:04.165Z,79.43
2022-11-16T02:53:37.054Z,79.56
2022-11-16T02:56:04.055Z,80.01
2022-11-16T02:58:32.326Z,78.76
2022-11-16T03:01:06.214Z,79.24
2022-11-16T03:03:43.531Z,78.31
2022-11-16T03:06:30.532Z,78.36
2022-11-16T03:09:12.988Z,78.49
2022-11-16T03:12:01.344Z,78.17
2022-11-16T03:14:43.254Z,78.58
2022-11-16T03:17:21.145Z,78.30
2022-11-16T03:19:55.190Z,78.85
2022-11-16T03:22:45.270Z,78.49
2022-11-16T03:25:16.030Z,78.75
2022-11-16T03:27:45.101Z,78.87
2022-11-16T03:30:21.130Z,79.06
2022-11-16T03:33:02.555Z,78.45
2022-11-16T03:35:38.777Z,78.79
2022-11-16T03:38:08.581Z,78.11
2022-11-16T03:40:37.755Z,78.73
2022-11-16T03:43:07.692Z,78.78
2022-11-16T03:45:36.712Z,78.91
2022-11-16T03:48:07.192Z,78.77
2022-11-16T03:50:34.079Z,78.20
2022-11-16T03:53:01.822Z,78.17
2022-11-16T03:55:29.010Z,78.69
2022-11-16T03:57:55.966Z,78.63
2022-11-16T04:00:24.274Z,78.75
2022-11-16T04:02:53.664Z,78.83
2022-11-16T04:05:40.862Z,79.35
2022-11-16T04:08:36.289Z,79.20
2022-11-16T04:11:23.164Z,78.85
2022-11-16T04:14:10.330Z,79.34
2022-11-16T04:16:58.986Z,78.25
2022-11-16T04:19:45.059Z,78.34
2022-11-16T04:22:56.600Z,78.02
2022-11-16T04:25:30.870Z,77.56
2022-11-16T04:28:13.950Z,77.74
2022-11-16T04:31:08.361Z,77.74
2022-11-16T04:33:56.730Z,77.66
2022-11-16T04:36:42.166Z,77.41
2022-11-16T04:39:10.855Z,77.38
2022-11-16T04:41:56.483Z,78.16
2022-11-16T04:44:29.751Z,77.58
2022-11-16T04:47:09.308Z,77.33
2022-11-16T04:49:38.528Z,77.53
2022-11-16T04:52:06.949Z,77.58
2022-11-16T04:54:34.378Z,77.38
2022-11-16T04:57:02.551Z,77.37
2022-11-16T04:59:29.550Z,77.14
2022-11-16T05:02:08.411Z,77.32
2022-11-16T05:04:42.966Z,77.05
2022-11-16T05:07:12.710Z,77.00
2022-11-16T05:09:46.712Z,77.48
2022-11-16T05:12:20.513Z,77.45
2022-11-16T05:14:50.986Z,77.89
2022-11-16T05:17:19.701Z,78.17
2022-11-16T05:20:05.964Z,78.03
2022-11-16T05:22:37.999Z,77.67
2022-11-16T05:25:07.965Z,77.46
2022-11-16T05:27:35.282Z,78.39
2022-11-16T05:30:06.560Z,78.13
2022-11-16T05:32:34.156Z,78.20
2022-11-16T05:35:01.035Z,77.72
2022-11-16T05:37:29.273Z,77.54
2022-11-16T05:39:57.222Z,77.19
2022-11-16T05:42:33.486Z,77.06
2022-11-16T05:45:01.637Z,77.50
2022-11-16T05:47:30.725Z,76.99
2022-11-16T05:49:58.759Z,77.94
2022-11-16T05:52:29.690Z,77.43
2022-11-16T05:55:01.359Z,77.48
2022-11-16T05:57:31.158Z,77.58
2022-11-16T05:59:58.080Z,77.29
2022-11-16T06:02:25.018Z,77.72
2022-11-16T06:04:52.221Z,77.33
2022-11-16T06:07:20.797Z,76.96
2022-11-16T06:09:47.798Z,76.34
2022-11-16T06:12:19.502Z,77.08
2022-11-16T06:14:48.386Z,76.28
2022-11-16T06:17:15.450Z,76.36
2022-11-16T06:19:43.511Z,75.26
2022-11-16T06:22:10.650Z,75.89
2022-11-16T06:24:37.623Z,75.41
2022-11-16T06:27:04.553Z,75.04
2022-11-16T06:29:33.555Z,75.89
2022-11-16T06:32:00.447Z,75.71
2022-11-16T06:34:27.521Z,75.31
2022-11-16T06:36:55.254Z,75.18
2022-11-16T06:39:22.445Z,75.25
2022-11-16T06:41:49.714Z,75.32
2022-11-16T06:44:16.798Z,75.25
2022-11-16T06:46:53.486Z,75.31
2022-11-16T06:49:20.430Z,75.46
2022-11-16T06:51:48.863Z,75.66
2022-11-16T06:54:15.831Z,75.56
2022-11-16T06:56:42.893Z,75.89
2022-11-16T06:59:10.217Z,75.39
2022-11-16T07:01:37.728Z,75.48
2022-11-16T07:04:12.165Z,75.40
2022-11-16T07:06:43.062Z,75.26
2022-11-16T07:09:10.152Z,75.02
2022-11-16T07:11:37.996Z,75.06
2022-11-16T07:14:04.922Z,74.46
2022-11-16T07:16:36.078Z,73.81
2022-11-16T07:19:05.574Z,73.54
2022-11-16T07:21:55.948Z,72.89
2022-11-16T07:24:24.355Z,71.62
2022-11-16T07:26:54.107Z,72.04
2022-11-16T07:29:26.611Z,71.44
2022-11-16T07:32:33.850Z,71.27
2022-11-16T07:35:40.583Z,70.58
2022-11-16T07:38:17.833Z,70.10
2022-11-16T07:40:46.807Z,70.67
2022-11-16T07:43:17.632Z,69.50
2022-11-16T07:49:10.870Z,68.32
2022-11-16T07:52:12.989Z,68.17
2022-11-16T07:55:04.911Z,67.67
2022-11-16T07:57:34.770Z,67.04
2022-11-16T08:00:10.124Z,66.99
2022-11-16T08:02:56.860Z,66.25
2022-11-16T08:05:25.708Z,66.74
2022-11-16T08:07:54.683Z,67.57
2022-11-16T08:10:25.005Z,67.25
2022-11-16T08:12:55.280Z,65.74
2022-11-16T08:15:25.171Z,65.86
2022-11-16T08:17:59.012Z,67.00
2022-11-16T08:20:29.177Z,63.89
2022-11-16T08:23:01.916Z,60.98
2022-11-16T08:25:36.076Z,62.24
2022-11-16T08:28:04.229Z,62.01
2022-11-16T08:30:35.385Z,62.28
2022-11-16T08:33:04.374Z,61.04
2022-11-16T08:35:32.702Z,63.03
2022-11-16T08:38:00.262Z,62.96
2022-11-16T08:40:29.390Z,63.78
2022-11-16T08:42:57.190Z,64.06
2022-11-16T08:45:24.673Z,62.44
2022-11-16T08:48:03.145Z,60.14
2022-11-16T08:50:44.131Z,60.64
2022-11-16T08:53:20.134Z,59.55
2022-11-16T08:55:50.775Z,58.68
2022-11-16T08:58:19.321Z,59.21
2022-11-16T09:00:48.313Z,58.09
2022-11-16T09:03:15.173Z,58.93
2022-11-16T09:05:42.660Z,60.02
2022-11-16T09:08:11.596Z,61.18
2022-11-16T09:10:38.556Z,61.37
2022-11-16T09:13:05.436Z,61.05
2022-11-16T09:15:32.881Z,61.01
2022-11-16T09:17:59.776Z,61.50
2022-11-16T09:20:26.820Z,60.84
2022-11-16T09:22:53.743Z,60.53
2022-11-16T09:25:22.102Z,60.24
2022-11-16T09:27:48.989Z,59.82
2022-11-16T09:30:17.677Z,60.07
2022-11-16T09:32:44.572Z,59.18
2022-11-16T09:35:11.558Z,58.70
2022-11-16T09:37:38.535Z,58.89
2022-11-16T09:40:06.165Z,56.51
2022-11-16T09:42:59.161Z,57.47
2022-11-16T09:45:52.162Z,53.20
2022-11-16T09:48:22.560Z,53.15
2022-11-16T09:51:02.826Z,54.02
2022-11-16T09:53:42.252Z,53.13
2022-11-16T09:56:16.480Z,50.32
2022-11-16T09:58:57.598Z,49.29
2022-11-16T10:01:48.325Z,48.07
2022-11-16T10:04:18.673Z,50.41
2022-11-16T10:06:51.543Z,51.81
2022-11-16T10:09:19.429Z,51.66
2022-11-16T10:12:14.534Z,50.60
2022-11-16T10:14:48.696Z,51.99
2022-11-16T10:17:19.385Z,53.83
2022-11-16T10:20:30.297Z,53.79
2022-11-16T10:23:19.990Z,54.18
2022-11-16T10:25:54.410Z,55.35
2022-11-16T10:28:45.977Z,55.21
2022-11-16T10:31:32.637Z,55.63
2022-11-16T10:34:03.753Z,56.34
2022-11-16T10:36:36.095Z,56.95
2022-11-16T10:39:03.310Z,57.22
2022-11-16T10:41:47.110Z,57.99
2022-11-16T10:44:32.828Z,57.85
2022-11-16T10:47:10.060Z,56.65
2022-11-16T10:49:46.997Z,55.91
2022-11-16T10:52:13.857Z,56.46
2022-11-16T10:54:44.214Z,56.68
2022-11-16T10:57:14.377Z,56.64
2022-11-16T10:59:50.187Z,57.16
2022-11-16T11:02:37.522Z,57.59
2022-11-16T11:05:04.270Z,55.01
2022-11-16T11:07:40.704Z,55.28
2022-11-16T11:10:25.352Z,55.14
2022-11-16T11:13:10.848Z,56.14
2022-11-16T11:15:39.251Z,56.04
2022-11-16T11:18:19.542Z,56.72
2022-11-16T11:20:52.886Z,56.50
2022-11-16T11:23:23.983Z,56.05
2022-11-16T11:25:59.851Z,56.46
2022-11-16T11:28:32.776Z,56.30
2022-11-16T11:30:59.755Z,57.62
2022-11-16T11:33:31.062Z,57.51
2022-11-16T11:36:18.682Z,57.52
2022-11-16T11:39:04.532Z,56.89
2022-11-16T11:41:42.055Z,56.93
2022-11-16T11:44:17.311Z,57.20
2022-11-16T11:47:42.380Z,56.27
2022-11-16T11:49:42.276Z,55.38
2022-11-16T11:52:21.067Z,55.93
2022-11-16T11:54:50.882Z,55.19
2022-11-16T11:57:23.219Z,55.88
2022-11-16T11:59:53.327Z,56.57
2022-11-16T12:02:31.785Z,56.22
2022-11-16T12:05:16.884Z,56.66
2022-11-16T12:08:28.716Z,56.13
2022-11-16T12:11:07.636Z,56.37
2022-11-16T12:13:41.363Z,56.26
2022-11-16T12:16:23.515Z,56.82
2022-11-16T12:19:08.919Z,56.50
2022-11-16T12:21:42.728Z,56.40
2022-11-16T12:24:24.791Z,57.85
2022-11-16T12:27:10.524Z,57.62
2022-11-16T12:30:13.671Z,57.43
2022-11-16T12:33:02.233Z,58.14
2022-11-16T12:35:38.252Z,58.35
2022-11-16T12:38:27.964Z,57.96
2022-11-16T12:41:00.725Z,58.98
2022-11-16T12:44:04.837Z,59.62
2022-11-16T12:46:49.961Z,59.78
2022-11-16T12:49:24.414Z,60.39
2022-11-16T12:52:34.542Z,60.30
2022-11-16T12:55:27.480Z,59.75
2022-11-16T12:58:36.442Z,60.35
2022-11-16T13:01:29.709Z,61.33
2022-11-16T13:04:04.314Z,61.33
2022-11-16T13:06:39.928Z,61.78
2022-11-16T13:09:23.811Z,61.97
2022-11-16T13:11:55.883Z,61.59
2022-11-16T13:14:40.564Z,61.75
2022-11-16T13:17:07.852Z,62.25
2022-11-16T13:19:42.304Z,62.79
2022-11-16T13:22:22.060Z,62.34
2022-11-16T13:25:21.501Z,60.96
2022-11-16T13:28:06.063Z,62.09
2022-11-16T13:30:50.861Z,61.40
2022-11-16T13:34:05.750Z,61.79
2022-11-16T13:36:32.698Z,61.09
2022-11-16T13:38:59.640Z,61.53
2022-11-16T13:41:50.959Z,60.95
2022-11-16T13:44:20.823Z,60.86
2022-11-16T13:46:56.612Z,61.27
2022-11-16T13:49:29.517Z,61.79
2022-11-16T13:52:23.167Z,62.06
2022-11-16T13:54:53.852Z,61.20
2022-11-16T13:57:22.940Z,61.55
2022-11-16T14:00:01.264Z,62.33
2022-11-16T14:02:40.549Z,62.32
2022-11-16T14:05:14.998Z,62.65
2022-11-16T14:07:50.717Z,62.63
2022-11-16T14:10:38.777Z,62.34
2022-11-16T14:13:27.540Z,62.09
2022-11-16T14:16:16.701Z,61.87
2022-11-16T14:18:44.860Z,62.70
2022-11-16T14:21:20.672Z,63.08
2022-11-16T14:23:56.396Z,63.45
2022-11-16T14:27:00.423Z,62.86
2022-11-16T14:29:57.285Z,63.11
2022-11-16T14:32:31.180Z,63.42
2022-11-16T14:35:00.665Z,63.25
2022-11-16T14:37:30.390Z,63.50
2022-11-16T14:40:14.958Z,63.19
2022-11-16T14:45:39.923Z,63.61
2022-11-16T14:48:15.771Z,63.54
2022-11-16T14:50:45.577Z,64.02
2022-11-16T14:53:19.490Z,64.61
2022-11-16T14:55:46.434Z,63.88
2022-11-16T14:58:20.761Z,64.06
2022-11-16T15:01:00.148Z,64.15
2022-11-16T15:03:45.774Z,64.27
2022-11-16T15:06:15.881Z,64.94
2022-11-16T15:08:50.583Z,65.12
2022-11-16T15:11:56.455Z,65.77
2022-11-16T15:14:27.421Z,65.77
2022-11-16T15:16:57.314Z,65.75
2022-11-16T15:19:24.892Z,65.81
2022-11-16T15:21:57.747Z,66.56
2022-11-16T15:24:30.885Z,66.34
2022-11-16T15:27:08.924Z,66.94
2022-11-16T15:29:36.074Z,67.14
2022-11-16T15:32:03.421Z,67.74
2022-11-16T15:34:31.329Z,67.31
2022-11-16T15:36:58.263Z,68.05
2022-11-16T15:39:33.153Z,67.76
2022-11-16T15:42:04.062Z,67.65
2022-11-16T15:44:33.006Z,67.58
2022-11-16T15:47:00.802Z,68.74
2022-11-16T15:49:31.489Z,68.49
2022-11-16T15:51:59.628Z,68.04
2022-11-16T15:54:55.249Z,68.23
2022-11-16T15:57:24.688Z,68.08
2022-11-16T15:59:57.160Z,68.08
2022-11-16T16:02:29.816Z,67.85
2022-11-16T16:04:56.899Z,68.13
2022-11-16T16:07:41.190Z,68.37
2022-11-16T16:10:20.070Z,67.54
2022-11-16T16:12:49.810Z,68.04
2022-11-16T16:15:36.201Z,68.68
2022-11-16T16:18:13.294Z,68.52
2022-11-16T16:20:48.901Z,68.79
2022-11-16T16:23:16.424Z,68.23
2022-11-16T16:25:49.048Z,68.43
2022-11-16T16:28:17.436Z,68.13
2022-11-16T16:30:44.466Z,68.34
2022-11-16T16:33:19.336Z,68.54
2022-11-16T16:35:49.787Z,68.02
2022-11-16T16:38:16.791Z,68.12
2022-11-16T16:40:44.211Z,68.02
2022-11-16T16:43:11.672Z,68.13
2022-11-16T16:45:44.515Z,67.99
2022-11-16T16:48:14.374Z,67.98
2022-11-16T16:50:41.323Z,67.47
2022-11-16T16:53:12.943Z,67.42
2022-11-16T16:55:40.522Z,67.03
2022-11-16T16:58:07.421Z,67.23
2022-11-16T17:00:34.586Z,67.05
2022-11-16T17:03:01.505Z,67.45
2022-11-16T17:05:30.535Z,67.57
2022-11-16T17:07:57.461Z,67.50
2022-11-16T17:10:24.469Z,66.99
2022-11-16T17:12:55.454Z,66.92
2022-11-16T17:15:23.349Z,67.62
2022-11-16T17:17:50.470Z,67.24
2022-11-16T17:20:18.184Z,67.31
2022-11-16T17:22:46.034Z,67.39
2022-11-16T17:25:13.943Z,67.53
2022-11-16T17:27:41.640Z,67.56
2022-11-16T17:30:10.012Z,68.12
2022-11-16T17:32:37.688Z,68.46
2022-11-16T17:35:05.458Z,67.89
2022-11-16T17:37:32.278Z,68.50
2022-11-16T17:39:59.853Z,68.03
2022-11-16T17:42:27.447Z,68.41
2022-11-16T17:44:55.237Z,68.17
2022-11-16T17:47:22.164Z,68.32
2022-11-16T17:49:49.612Z,68.40
2022-11-16T17:52:16.634Z,68.35
2022-11-16T17:54:43.567Z,69.33
2022-11-16T17:57:14.016Z,69.23
2022-11-16T17:59:41.568Z,69.29
2022-11-16T18:02:12.248Z,69.17
2022-11-16T18:04:39.861Z,68.39
2022-11-16T18:07:07.556Z,68.74
2022-11-16T18:09:34.427Z,68.82
2022-11-16T18:12:02.182Z,67.90
2022-11-16T18:14:29.080Z,68.68
2022-11-16T18:16:56.676Z,69.01
2022-11-16T18:19:24.186Z,68.38
2022-11-16T18:21:51.083Z,68.71
2022-11-16T18:24:18.804Z,68.35
2022-11-16T18:26:45.702Z,68.38
2022-11-16T18:29:15.832Z,68.60
2022-11-16T18:31:43.038Z,69.56
2022-11-16T18:34:14.187Z,69.78
2022-11-16T18:36:41.919Z,69.86
2022-11-16T18:39:08.843Z,70.41
2022-11-16T18:41:36.729Z,71.27
2022-11-16T18:44:04.296Z,71.24
2022-11-16T18:46:33.214Z,71.85
2022-11-16T18:49:00.791Z,72.69
2022-11-16T18:51:28.956Z,72.90
2022-11-16T18:53:56.428Z,72.74
2022-11-16T18:56:24.370Z,73.03
2022-11-16T18:58:52.850Z,73.30
2022-11-16T19:01:25.197Z,73.56
2022-11-16T19:03:53.632Z,73.44
2022-11-16T19:06:21.377Z,73.28
2022-11-16T19:08:55.731Z,73.79
2022-11-16T19:11:24.151Z,73.56
2022-11-16T19:13:57.580Z,73.59
2022-11-16T19:16:25.159Z,74.03
2022-11-16T19:18:52.743Z,73.77
2022-11-16T19:21:19.793Z,73.77
2022-11-16T19:23:48.971Z,73.06
2022-11-16T19:26:18.217Z,73.42
2022-11-16T19:28:47.290Z,72.91
2022-11-16T19:31:18.763Z,73.18
2022-11-16T19:33:46.430Z,73.24
2022-11-16T19:36:18.664Z,73.64
2022-11-16T19:38:47.660Z,73.75
2022-11-16T19:41:16.445Z,73.61
2022-11-16T19:43:43.467Z,73.88
2022-11-16T19:46:17.644Z,74.11
2022-11-16T19:48:47.098Z,74.14
2022-11-16T19:51:16.808Z,73.98
2022-11-16T19:53:44.123Z,74.26
2022-11-16T19:56:13.339Z,74.50
2022-11-16T19:58:40.514Z,73.99
2022-11-16T20:01:20.715Z,73.93
2022-11-16T20:03:48.865Z,74.33
2022-11-16T20:06:20.129Z,73.92
2022-11-16T20:08:49.735Z,74.19
2022-11-16T20:11:21.716Z,73.98
2022-11-16T20:13:50.387Z,74.04
2022-11-16T20:16:19.330Z,75.15
2022-11-16T20:18:47.691Z,74.99
2022-11-16T20:21:26.036Z,75.30
2022-11-16T20:23:53.426Z,75.45
2022-11-16T20:26:24.685Z,75.54
2022-11-16T20:28:52.582Z,75.30
2022-11-16T20:31:22.299Z,75.65
2022-11-16T20:33:51.666Z,75.70
2022-11-16T20:36:19.169Z,75.47
2022-11-16T20:38:46.430Z,75.04
2022-11-16T20:41:18.171Z,75.39
2022-11-16T20:43:45.824Z,75.07
2022-11-16T20:46:17.230Z,75.05
2022-11-16T20:48:45.068Z,74.61
2022-11-16T20:51:14.882Z,74.46
2022-11-16T20:53:41.812Z,73.77
2022-11-16T20:56:10.619Z,72.32
2022-11-16T20:58:38.382Z,72.47
2022-11-16T21:01:12.439Z,72.28
2022-11-16T21:03:39.973Z,72.54
2022-11-16T21:06:10.247Z,71.72
